Time;durP1;ratioP1;P1;durP2;ratioP2;P2;SDS_P1;SDS_P2;PMS_P1;PMS_P2;Temp;Humidity;BMP_temperature;BMP_pressure;BME280_temperature;BME280_humidity;BME280_pressure;Samples;Min_cycle;Max_cycle;Signal;HPM_P1;HPM_P2
2023/03/23 00:01:21;;;;;;;5.43;3.35;;;10.80;99.90;;;;;;5075124;28;20481;-72
2023/03/23 00:03:49;;;;;;;7.10;3.20;;;10.80;99.90;;;;;;5073745;28;20046;-72
2023/03/23 00:06:19;;;;;;;8.18;3.13;;;10.80;99.90;;;;;;5073971;28;20063;-72
2023/03/23 00:08:48;;;;;;;6.53;3.28;;;10.90;99.90;;;;;;5068929;28;20060;-72
2023/03/23 00:11:18;;;;;;;9.82;3.75;;;10.80;99.90;;;;;;5104749;27;20105;-72
2023/03/23 00:13:45;;;;;;;9.40;3.25;;;10.80;99.90;;;;;;5066563;28;21213;-72
2023/03/23 00:16:28;;;;;;;6.97;3.30;;;10.90;99.90;;;;;;5075420;28;20048;-72
2023/03/23 00:18:55;;;;;;;6.13;3.03;;;10.90;99.90;;;;;;5052266;28;20078;-72
2023/03/23 00:21:32;;;;;;;7.03;3.08;;;10.80;99.90;;;;;;5053836;28;20082;-72
2023/03/23 00:23:59;;;;;;;6.20;3.05;;;10.90;99.90;;;;;;5062295;28;20048;-72
2023/03/23 00:26:28;;;;;;;5.90;3.00;;;10.90;99.90;;;;;;5092737;28;20043;-72
2023/03/23 00:28:54;;;;;;;5.65;2.85;;;10.90;99.90;;;;;;5077603;28;20401;-71
2023/03/23 00:31:19;;;;;;;6.47;3.10;;;10.90;99.90;;;;;;5055477;28;20040;-72
2023/03/23 00:33:45;;;;;;;5.95;2.80;;;10.90;99.90;;;;;;5078233;28;20081;-72
2023/03/23 00:36:12;;;;;;;7.00;2.90;;;10.90;99.90;;;;;;5071772;28;20639;-72
2023/03/23 00:38:39;;;;;;;5.18;2.70;;;10.90;99.90;;;;;;5077093;28;20063;-72
2023/03/23 00:41:06;;;;;;;5.05;2.50;;;10.90;99.90;;;;;;5078419;28;20028;-72
2023/03/23 00:43:35;;;;;;;3.40;2.00;;;10.90;99.90;;;;;;5079632;28;20040;-72
2023/03/23 00:46:01;;;;;;;8.05;3.40;;;10.90;99.90;;;;;;5079991;28;20519;-71
2023/03/23 00:48:28;;;;;;;5.43;2.20;;;10.80;99.90;;;;;;5076946;28;20068;-72
2023/03/23 00:50:54;;;;;;;4.65;3.08;;;10.80;99.90;;;;;;5093739;28;20252;-72
2023/03/23 00:53:20;;;;;;;15.45;2.83;;;10.90;99.90;;;;;;5072099;28;20090;-72
2023/03/23 00:55:47;;;;;;;4.70;2.55;;;10.80;99.90;;;;;;5070818;28;20498;-72
2023/03/23 00:58:15;;;;;;;5.65;2.42;;;10.90;99.90;;;;;;5069060;28;20575;-72
2023/03/23 01:00:41;;;;;;;4.85;2.75;;;10.90;99.90;;;;;;5075295;28;20083;-72
2023/03/23 01:03:11;;;;;;;5.30;2.13;;;10.90;99.90;;;;;;5068584;28;20040;-72
2023/03/23 01:05:38;;;;;;;7.75;2.72;;;10.90;99.90;;;;;;5055132;28;20044;-72
2023/03/23 01:08:05;;;;;;;5.22;2.33;;;10.90;99.90;;;;;;5068301;28;20060;-72
2023/03/23 01:10:34;;;;;;;7.80;2.33;;;10.90;99.90;;;;;;5075828;28;20060;-72
2023/03/23 01:13:03;;;;;;;3.95;2.17;;;10.90;99.90;;;;;;5056471;28;20040;-72
2023/03/23 01:15:29;;;;;;;4.15;2.25;;;10.90;99.90;;;;;;5068641;28;20093;-72
2023/03/23 01:17:55;;;;;;;4.35;2.08;;;10.90;99.90;;;;;;5089375;28;20041;-72
2023/03/23 01:20:21;;;;;;;3.83;1.95;;;10.80;99.90;;;;;;5050615;28;20220;-72
2023/03/23 01:22:47;;;;;;;4.63;2.13;;;10.90;99.90;;;;;;5075873;28;20097;-72
2023/03/23 01:25:13;;;;;;;3.90;1.88;;;10.80;99.90;;;;;;5066730;28;20036;-72
2023/03/23 01:27:40;;;;;;;2.78;1.60;;;10.80;99.90;;;;;;5105543;27;20028;-72
2023/03/23 01:30:07;;;;;;;5.72;1.75;;;10.80;99.90;;;;;;5076016;28;20135;-71
2023/03/23 01:32:33;;;;;;;3.15;1.48;;;10.80;99.90;;;;;;5080286;28;20046;-72
2023/03/23 01:34:59;;;;;;;3.75;1.70;;;10.80;99.90;;;;;;5078335;28;20032;-72
2023/03/23 01:37:26;;;;;;;4.90;1.35;;;10.80;99.90;;;;;;5083596;28;20032;-72
2023/03/23 01:39:53;;;;;;;6.30;2.33;;;10.80;99.90;;;;;;5082119;28;20044;-72
2023/03/23 01:42:25;;;;;;;2.58;1.50;;;10.80;99.90;;;;;;5092956;28;20036;-72
2023/03/23 01:44:50;;;;;;;3.33;1.80;;;10.80;99.90;;;;;;5081705;28;20048;-72
2023/03/23 01:47:23;;;;;;;2.75;1.58;;;10.80;99.90;;;;;;5076264;28;20046;-72
2023/03/23 01:49:49;;;;;;;5.40;1.75;;;10.90;99.90;;;;;;5073687;28;20109;-72
2023/03/23 01:52:29;;;;;;;3.28;1.63;;;10.80;99.90;;;;;;5081523;28;20405;-72
2023/03/23 01:54:56;;;;;;;3.70;1.13;;;10.80;99.90;;;;;;5111729;27;20612;-72
2023/03/23 01:57:26;;;;;;;3.22;1.10;;;10.90;99.90;;;;;;5077342;28;20132;-72
2023/03/23 01:59:54;;;;;;;2.28;1.15;;;10.80;99.90;;;;;;5069670;28;20039;-72
2023/03/23 02:02:22;;;;;;;5.18;1.58;;;10.80;99.90;;;;;;5060985;28;20418;-72
2023/03/23 02:04:49;;;;;;;3.60;1.35;;;10.80;99.90;;;;;;5080585;28;20081;-72
2023/03/23 02:07:20;;;;;;;4.40;1.70;;;10.80;99.90;;;;;;5073041;28;20091;-72
2023/03/23 02:09:45;;;;;;;6.07;2.10;;;10.80;99.90;;;;;;5078148;28;20528;-72
2023/03/23 02:12:11;;;;;;;4.28;1.30;;;10.80;99.90;;;;;;5078364;27;20048;-72
2023/03/23 02:14:37;;;;;;;5.30;1.90;;;10.90;99.90;;;;;;5070408;28;20060;-72
2023/03/23 02:17:06;;;;;;;5.15;1.55;;;10.90;99.90;;;;;;5059395;28;20040;-72
2023/03/23 02:20:06;;;;;;;3.20;1.35;;;10.90;99.90;;;;;;5079965;28;20086;-72
2023/03/23 02:22:33;;;;;;;2.22;1.27;;;10.90;99.90;;;;;;5106931;27;20119;-72
2023/03/23 02:25:18;;;;;;;3.08;1.50;;;10.90;99.90;;;;;;5108281;27;20040;-72
2023/03/23 02:28:02;;;;;;;2.20;1.25;;;10.90;99.90;;;;;;5073822;28;20036;-72
2023/03/23 02:31:05;;;;;;;3.25;1.60;;;10.80;99.90;;;;;;5091297;28;20617;-72
2023/03/23 02:33:55;;;;;;;2.83;1.20;;;10.80;99.90;;;;;;5086315;28;20470;-72
2023/03/23 02:36:36;;;;;;;4.68;1.20;;;10.90;99.90;;;;;;5060569;28;20039;-72
2023/03/23 02:39:23;;;;;;;3.17;1.42;;;10.80;99.90;;;;;;5071867;28;20032;-71
2023/03/23 02:42:04;;;;;;;2.15;1.33;;;10.90;99.90;;;;;;5068974;28;20048;-72
2023/03/23 02:44:31;;;;;;;3.40;1.38;;;10.90;99.90;;;;;;5092216;28;20055;-72
2023/03/23 02:46:59;;;;;;;2.53;1.35;;;10.90;99.90;;;;;;5063239;28;20486;-72
2023/03/23 02:49:27;;;;;;;6.85;1.73;;;11.00;99.90;;;;;;5077855;28;20371;-72
2023/03/23 02:51:56;;;;;;;2.60;1.20;;;10.90;99.90;;;;;;5058751;28;20036;-72
2023/03/23 02:54:25;;;;;;;3.15;1.00;;;10.90;99.90;;;;;;5073573;28;20055;-72
2023/03/23 02:56:52;;;;;;;5.35;1.30;;;10.80;99.90;;;;;;5090515;27;20405;-72
2023/03/23 02:59:18;;;;;;;3.60;1.05;;;10.80;99.90;;;;;;5076547;28;20063;-72
2023/03/23 03:01:48;;;;;;;4.03;1.70;;;10.90;99.90;;;;;;5072961;28;20086;-72
2023/03/23 03:04:18;;;;;;;3.63;1.42;;;10.90;99.90;;;;;;5079783;28;20266;-72
2023/03/23 03:06:43;;;;;;;2.92;0.93;;;10.80;99.90;;;;;;5060663;28;20063;-72
2023/03/23 03:09:15;;;;;;;3.58;1.40;;;10.80;99.90;;;;;;5090353;28;20064;-72
2023/03/23 03:11:50;;;;;;;2.35;1.33;;;10.80;99.90;;;;;;5073634;28;20382;-72
2023/03/23 03:14:29;;;;;;;4.43;1.30;;;10.80;99.90;;;;;;5107662;27;20084;-73
2023/03/23 03:17:05;;;;;;;2.72;1.13;;;10.90;99.90;;;;;;5074617;28;20041;-73
2023/03/23 03:19:43;;;;;;;3.13;1.20;;;10.80;99.90;;;;;;5072342;28;20477;-72
2023/03/23 03:22:09;;;;;;;2.03;0.98;;;10.80;99.90;;;;;;5075499;28;20032;-72
2023/03/23 03:24:40;;;;;;;3.35;1.23;;;10.80;99.90;;;;;;5075512;28;20040;-72
2023/03/23 03:27:14;;;;;;;3.60;1.42;;;10.80;99.90;;;;;;5074164;28;20028;-72
2023/03/23 03:29:43;;;;;;;3.95;1.30;;;10.80;99.90;;;;;;5077422;28;20063;-72
2023/03/23 03:32:16;;;;;;;1.52;0.90;;;10.80;99.90;;;;;;5055607;28;20542;-72
2023/03/23 03:34:42;;;;;;;3.05;1.45;;;10.80;99.90;;;;;;5067151;28;20055;-71
2023/03/23 03:37:11;;;;;;;3.00;1.52;;;10.80;99.90;;;;;;5054674;28;20036;-72
2023/03/23 03:39:38;;;;;;;3.83;1.40;;;10.80;99.90;;;;;;5080237;28;20064;-72
2023/03/23 03:42:05;;;;;;;3.28;1.27;;;10.80;99.90;;;;;;5072966;28;20024;-71
2023/03/23 03:44:31;;;;;;;5.55;2.10;;;10.80;99.90;;;;;;5073834;28;20040;-72
2023/03/23 03:46:57;;;;;;;3.00;1.42;;;10.80;99.90;;;;;;5076053;28;20047;-72
2023/03/23 03:49:23;;;;;;;2.30;1.23;;;10.80;99.90;;;;;;5071606;28;20405;-72
2023/03/23 03:51:48;;;;;;;2.78;1.58;;;10.90;99.90;;;;;;5054193;28;20182;-72
2023/03/23 03:54:15;;;;;;;3.97;1.38;;;10.90;99.90;;;;;;5091928;28;20077;-72
2023/03/23 03:56:41;;;;;;;7.63;1.52;;;10.90;99.90;;;;;;5061179;28;20040;-71
2023/03/23 03:59:09;;;;;;;3.63;1.33;;;10.90;99.90;;;;;;5076093;28;20498;-72
2023/03/23 04:01:36;;;;;;;4.10;1.40;;;10.90;99.90;;;;;;5074986;28;20040;-72
2023/03/23 04:04:02;;;;;;;2.97;1.38;;;10.90;99.90;;;;;;5072400;28;20072;-72
2023/03/23 04:06:28;;;;;;;4.47;1.75;;;10.90;99.90;;;;;;5085668;28;20474;-72
2023/03/23 04:08:58;;;;;;;2.25;1.08;;;10.90;99.90;;;;;;5054290;28;20048;-72
2023/03/23 04:11:25;;;;;;;4.35;1.70;;;10.90;99.90;;;;;;5075369;28;20040;-71
2023/03/23 04:13:51;;;;;;;3.80;1.70;;;10.90;99.90;;;;;;5049504;28;20075;-72
2023/03/23 04:16:17;;;;;;;4.15;1.85;;;10.90;99.90;;;;;;5075374;28;20131;-72
2023/03/23 04:18:43;;;;;;;3.67;1.50;;;10.90;99.90;;;;;;5070447;28;20089;-72
2023/03/23 04:21:09;;;;;;;3.90;1.50;;;10.90;99.90;;;;;;5070768;28;20486;-72
2023/03/23 04:23:35;;;;;;;3.28;1.65;;;10.90;99.90;;;;;;5073810;28;20038;-71
2023/03/23 04:26:03;;;;;;;3.63;1.27;;;10.90;99.90;;;;;;5068570;28;20075;-71
2023/03/23 04:28:33;;;;;;;3.40;1.58;;;10.90;99.90;;;;;;5090903;28;20036;-72
2023/03/23 04:31:00;;;;;;;4.10;1.83;;;10.90;99.90;;;;;;5057980;28;20055;-72
2023/03/23 04:33:27;;;;;;;3.92;1.80;;;11.00;99.90;;;;;;5088376;28;20028;-72
2023/03/23 04:35:54;;;;;;;2.88;1.55;;;11.00;99.90;;;;;;5049512;28;20040;-71
2023/03/23 04:38:20;;;;;;;3.83;1.80;;;11.00;99.90;;;;;;5073262;28;20050;-72
2023/03/23 04:40:51;;;;;;;4.15;1.65;;;11.00;99.90;;;;;;5073089;28;20041;-72
2023/03/23 04:43:21;;;;;;;6.47;1.88;;;11.00;99.90;;;;;;5081520;28;20146;-72
2023/03/23 04:45:52;;;;;;;3.35;1.52;;;11.00;99.90;;;;;;5102301;27;20037;-72
2023/03/23 04:48:19;;;;;;;2.75;1.33;;;11.10;99.90;;;;;;5078172;28;20047;-72
2023/03/23 04:50:45;;;;;;;8.38;1.83;;;11.00;99.90;;;;;;5076469;28;20096;-72
2023/03/23 04:53:10;;;;;;;4.45;1.85;;;11.10;99.90;;;;;;5068909;28;20048;-72
2023/03/23 04:55:36;;;;;;;3.97;1.60;;;11.10;99.90;;;;;;5090168;28;20089;-71
2023/03/23 04:58:06;;;;;;;5.18;1.85;;;11.00;99.90;;;;;;5073666;28;20127;-71
2023/03/23 05:00:33;;;;;;;4.57;2.03;;;11.00;99.90;;;;;;5080908;28;20039;-72
2023/03/23 05:03:00;;;;;;;2.40;1.23;;;10.90;99.90;;;;;;5067006;28;20025;-72
2023/03/23 05:05:27;;;;;;;2.00;1.00;;;10.80;99.90;;;;;;5051077;28;20040;-72
2023/03/23 05:07:53;;;;;;;3.22;0.60;;;10.70;99.90;;;;;;5060308;28;20078;-71
2023/03/23 05:10:19;;;;;;;2.63;0.70;;;10.60;99.90;;;;;;5077469;28;20135;-71
2023/03/23 05:12:45;;;;;;;3.88;0.88;;;10.50;99.90;;;;;;5056317;28;20048;-72
2023/03/23 05:15:12;;;;;;;2.72;1.13;;;10.40;99.90;;;;;;5075982;28;20044;-71
2023/03/23 05:17:38;;;;;;;2.47;0.82;;;10.30;99.90;;;;;;5085757;28;20040;-71
2023/03/23 05:20:11;;;;;;;2.25;0.95;;;10.20;99.90;;;;;;5054620;28;20599;-72
2023/03/23 05:22:38;;;;;;;3.55;1.00;;;10.20;99.90;;;;;;5069384;28;20192;-71
2023/03/23 05:25:04;;;;;;;1.40;0.82;;;10.20;99.90;;;;;;5050467;28;20784;-72
2023/03/23 05:27:30;;;;;;;1.30;0.50;;;10.10;99.90;;;;;;5075377;28;20037;-72
2023/03/23 05:30:01;;;;;;;1.38;0.70;;;10.10;99.90;;;;;;5075235;28;20097;-71
2023/03/23 05:32:28;;;;;;;1.08;0.60;;;10.10;99.90;;;;;;5065915;28;20048;-71
2023/03/23 05:34:56;;;;;;;1.40;0.60;;;10.00;99.90;;;;;;5107041;28;20522;-72
2023/03/23 05:37:22;;;;;;;2.05;0.80;;;10.00;99.90;;;;;;5074606;28;20597;-72
2023/03/23 05:39:47;;;;;;;2.67;0.57;;;10.00;99.90;;;;;;5077520;28;20024;-72
2023/03/23 05:42:13;;;;;;;2.38;1.00;;;10.00;99.90;;;;;;5075053;28;20194;-72
2023/03/23 05:44:38;;;;;;;1.85;0.63;;;10.00;99.90;;;;;;5052671;28;20040;-72
2023/03/23 05:47:04;;;;;;;3.35;0.77;;;10.00;99.90;;;;;;5062222;28;20036;-72
2023/03/23 05:49:30;;;;;;;4.03;0.93;;;10.10;99.90;;;;;;5052224;28;20668;-72
2023/03/23 05:51:56;;;;;;;4.57;0.98;;;10.10;99.90;;;;;;5064235;28;20383;-72
2023/03/23 05:54:22;;;;;;;4.03;1.17;;;10.20;99.90;;;;;;5086255;28;20545;-72
2023/03/23 05:56:48;;;;;;;5.63;0.90;;;10.20;99.90;;;;;;5056449;28;20485;-72
2023/03/23 05:59:14;;;;;;;2.47;0.70;;;10.20;99.90;;;;;;5064687;28;20044;-72
2023/03/23 06:01:40;;;;;;;2.08;1.00;;;10.20;99.90;;;;;;5101891;27;20410;-72
2023/03/23 06:04:06;;;;;;;3.85;0.98;;;10.20;99.90;;;;;;5072396;28;20051;-72
2023/03/23 06:06:32;;;;;;;2.42;0.60;;;10.20;99.90;;;;;;5083204;28;20055;-71
2023/03/23 06:08:58;;;;;;;3.42;0.85;;;10.20;99.90;;;;;;5059196;28;20028;-72
2023/03/23 06:11:25;;;;;;;3.25;0.50;;;10.20;99.90;;;;;;5070466;28;20032;-71
2023/03/23 06:13:52;;;;;;;3.03;0.95;;;10.20;99.90;;;;;;5051551;28;20056;-72
2023/03/23 06:16:18;;;;;;;5.93;0.75;;;10.20;99.90;;;;;;5078781;28;20052;-72
2023/03/23 06:18:44;;;;;;;6.75;0.73;;;10.10;99.90;;;;;;5053346;28;20043;-72
2023/03/23 06:21:11;;;;;;;3.28;0.73;;;10.10;99.90;;;;;;5071269;28;20031;-72
2023/03/23 06:23:37;;;;;;;5.93;0.98;;;10.10;99.90;;;;;;5074909;28;20036;-71
2023/03/23 06:26:05;;;;;;;2.10;0.70;;;10.10;99.90;;;;;;5054386;28;20048;-72
2023/03/23 06:28:31;;;;;;;1.90;0.45;;;10.10;99.90;;;;;;5074150;28;20134;-71
2023/03/23 06:31:01;;;;;;;1.85;0.60;;;10.10;99.90;;;;;;5072847;28;20036;-71
2023/03/23 06:33:27;;;;;;;1.13;0.50;;;10.10;99.90;;;;;;5077183;28;20401;-72
2023/03/23 06:35:52;;;;;;;1.20;0.57;;;10.10;99.90;;;;;;5072934;28;20067;-72
2023/03/23 06:38:18;;;;;;;1.58;0.47;;;10.10;99.90;;;;;;5079794;28;20036;-71
2023/03/23 06:40:46;;;;;;;1.52;0.55;;;10.10;99.90;;;;;;5080248;28;20417;-72
2023/03/23 06:43:12;;;;;;;7.15;0.80;;;10.20;99.90;;;;;;5077224;28;20414;-72
2023/03/23 06:45:38;;;;;;;4.13;0.80;;;10.10;99.90;;;;;;5077780;28;20213;-72
2023/03/23 06:48:03;;;;;;;1.63;0.85;;;10.20;99.90;;;;;;5077792;28;20473;-72
2023/03/23 06:50:29;;;;;;;3.67;0.88;;;10.20;99.90;;;;;;5069753;28;20044;-72
2023/03/23 06:52:55;;;;;;;3.80;1.05;;;10.20;99.90;;;;;;5075919;28;20044;-71
2023/03/23 06:55:20;;;;;;;8.35;1.00;;;10.30;99.90;;;;;;5060746;28;20035;-72
2023/03/23 06:57:47;;;;;;;4.03;1.02;;;10.30;99.90;;;;;;5080332;28;20497;-72
2023/03/23 07:00:13;;;;;;;6.00;1.25;;;10.30;99.90;;;;;;5073032;28;21575;-72
2023/03/23 07:02:44;;;;;;;5.95;1.30;;;10.30;99.90;;;;;;5080082;28;20111;-72
2023/03/23 07:05:10;;;;;;;6.78;1.33;;;10.30;99.90;;;;;;5074431;28;20056;-72
2023/03/23 07:07:40;;;;;;;4.50;1.30;;;10.40;99.90;;;;;;5074698;28;20137;-72
2023/03/23 07:10:08;;;;;;;3.22;1.00;;;10.40;99.90;;;;;;5074917;28;20035;-71
2023/03/23 07:12:35;;;;;;;2.45;1.08;;;10.50;99.90;;;;;;5056947;28;20051;-72
2023/03/23 07:15:02;;;;;;;5.85;1.45;;;10.50;99.90;;;;;;5055562;28;20036;-72
2023/03/23 07:17:29;;;;;;;4.97;1.25;;;10.50;99.90;;;;;;5073240;28;20044;-72
2023/03/23 07:19:55;;;;;;;5.43;1.73;;;10.50;99.90;;;;;;5070435;28;20032;-72
2023/03/23 07:22:21;;;;;;;3.83;1.02;;;10.60;99.90;;;;;;5104685;27;20032;-72
2023/03/23 07:24:46;;;;;;;3.85;1.05;;;10.60;99.90;;;;;;5074791;28;20135;-72
2023/03/23 07:27:12;;;;;;;4.35;1.00;;;10.60;99.90;;;;;;5070438;28;20044;-72
2023/03/23 07:29:38;;;;;;;3.50;1.05;;;10.60;99.90;;;;;;5070905;28;20106;-72
2023/03/23 07:32:04;;;;;;;5.07;1.10;;;10.60;99.90;;;;;;5075235;28;20481;-72
2023/03/23 07:34:31;;;;;;;5.75;1.25;;;10.70;99.90;;;;;;5104559;27;20048;-72
2023/03/23 07:36:57;;;;;;;8.07;1.10;;;10.70;99.90;;;;;;5085379;28;20052;-72
2023/03/23 07:39:23;;;;;;;5.90;1.38;;;10.70;99.90;;;;;;5108811;27;20059;-71
2023/03/23 07:41:50;;;;;;;4.25;0.98;;;10.70;99.90;;;;;;5055689;28;20048;-72
2023/03/23 07:44:16;;;;;;;9.98;1.25;;;10.80;99.90;;;;;;5072844;28;20490;-72
2023/03/23 07:46:42;;;;;;;3.88;1.10;;;10.80;99.90;;;;;;5068083;28;20174;-72
2023/03/23 07:49:09;;;;;;;4.75;1.20;;;10.90;99.90;;;;;;5088565;27;20051;-72
2023/03/23 07:51:38;;;;;;;9.45;1.23;;;10.90;99.90;;;;;;5100772;27;20032;-72
2023/03/23 07:54:04;;;;;;;3.22;1.02;;;11.00;99.90;;;;;;5074774;28;20035;-72
2023/03/23 07:56:30;;;;;;;5.05;1.15;;;11.00;99.90;;;;;;5049604;28;20056;-72
2023/03/23 07:58:56;;;;;;;4.25;1.00;;;11.00;99.90;;;;;;5070333;28;21378;-72
2023/03/23 08:01:23;;;;;;;11.50;1.92;;;11.10;99.90;;;;;;5074627;28;20060;-72
2023/03/23 08:03:50;;;;;;;5.28;0.98;;;11.00;99.90;;;;;;5089209;28;20063;-72
2023/03/23 08:06:15;;;;;;;2.28;0.63;;;11.10;99.90;;;;;;5065955;28;20111;-72
2023/03/23 08:08:41;;;;;;;3.40;1.00;;;11.20;99.90;;;;;;5077555;28;20119;-72
2023/03/23 08:11:07;;;;;;;5.55;1.20;;;11.10;99.90;;;;;;5075452;28;20039;-72
2023/03/23 08:13:34;;;;;;;5.80;1.25;;;11.20;99.90;;;;;;5084103;28;21228;-72
2023/03/23 08:16:03;;;;;;;7.65;1.67;;;11.10;99.90;;;;;;5051037;28;21066;-72
2023/03/23 08:18:29;;;;;;;8.10;0.88;;;11.20;99.90;;;;;;5086017;28;20397;-72
2023/03/23 08:20:55;;;;;;;5.53;1.80;;;11.10;99.90;;;;;;5069594;28;20041;-72
2023/03/23 08:23:21;;;;;;;4.03;0.80;;;11.20;99.90;;;;;;5070749;28;20425;-74
2023/03/23 08:25:48;;;;;;;8.18;1.80;;;11.20;99.90;;;;;;5068457;28;20505;-78
2023/03/23 08:28:14;;;;;;;6.85;1.27;;;11.20;99.90;;;;;;5053547;28;20040;-72
2023/03/23 08:30:40;;;;;;;6.47;1.00;;;11.20;99.90;;;;;;5070705;28;20040;-72
2023/03/23 08:33:08;;;;;;;7.10;1.10;;;11.20;99.90;;;;;;5073407;28;20036;-72
2023/03/23 08:35:34;;;;;;;6.93;1.02;;;11.30;99.90;;;;;;5084315;28;20123;-72
2023/03/23 08:38:00;;;;;;;6.60;1.25;;;11.30;99.90;;;;;;5067954;28;20136;-72
2023/03/23 08:40:26;;;;;;;6.20;1.10;;;11.30;99.90;;;;;;5068068;28;20090;-72
2023/03/23 08:42:52;;;;;;;9.60;1.50;;;11.30;99.90;;;;;;5068437;28;20549;-72
2023/03/23 08:45:21;;;;;;;6.30;1.23;;;11.40;99.90;;;;;;5081221;28;20375;-72
2023/03/23 08:47:51;;;;;;;2.22;0.77;;;11.40;99.90;;;;;;5116855;27;20040;-71
2023/03/23 08:50:19;;;;;;;7.22;1.23;;;11.40;99.90;;;;;;5067140;28;20501;-71
2023/03/23 08:52:45;;;;;;;4.55;1.58;;;11.40;99.90;;;;;;5068375;28;20036;-72
2023/03/23 08:55:12;;;;;;;6.25;1.25;;;11.40;99.90;;;;;;5051021;28;20051;-72
2023/03/23 08:57:38;;;;;;;3.90;1.20;;;11.40;99.90;;;;;;5068339;28;20062;-72
2023/03/23 09:00:17;;;;;;;5.60;1.20;;;11.50;99.90;;;;;;5050043;28;20029;-72
2023/03/23 09:02:43;;;;;;;4.38;1.00;;;11.40;99.90;;;;;;5051459;28;20043;-72
2023/03/23 09:05:10;;;;;;;2.70;0.82;;;11.50;99.90;;;;;;5066841;28;20050;-72
2023/03/23 09:07:41;;;;;;;6.40;2.13;;;11.50;99.90;;;;;;5101936;28;20033;-72
2023/03/23 09:10:07;;;;;;;12.75;1.65;;;11.40;99.90;;;;;;5068285;28;20249;-72
2023/03/23 09:12:33;;;;;;;7.25;1.17;;;11.40;99.90;;;;;;5067596;28;20099;-72
2023/03/23 09:14:59;;;;;;;7.03;1.15;;;11.40;99.90;;;;;;5069028;28;20076;-72
2023/03/23 09:17:25;;;;;;;7.78;1.40;;;11.40;99.90;;;;;;5087058;28;20058;-72
2023/03/23 09:19:51;;;;;;;6.28;0.93;;;11.40;99.90;;;;;;5087091;28;20040;-72
2023/03/23 09:22:19;;;;;;;4.65;1.67;;;11.50;99.90;;;;;;5068300;28;20386;-72
2023/03/23 09:24:46;;;;;;;4.38;1.48;;;11.40;99.90;;;;;;5088115;28;20466;-72
2023/03/23 09:27:12;;;;;;;9.45;1.20;;;11.40;99.90;;;;;;5071468;28;20054;-72
2023/03/23 09:29:38;;;;;;;6.82;1.02;;;11.40;99.90;;;;;;5056197;28;20123;-72
2023/03/23 09:32:03;;;;;;;5.60;1.48;;;11.40;99.90;;;;;;5102968;28;20559;-72
2023/03/23 09:34:29;;;;;;;4.45;0.93;;;11.30;99.90;;;;;;5069715;28;20044;-72
2023/03/23 09:36:55;;;;;;;7.55;1.20;;;11.20;99.90;;;;;;5069114;28;20032;-72
2023/03/23 09:39:20;;;;;;;4.68;1.10;;;11.20;99.90;;;;;;5070602;28;20116;-72
2023/03/23 09:42:38;;;;;;;7.70;1.67;;;11.20;99.90;;;;;;5072308;28;20068;-72
2023/03/23 09:45:30;;;;;;;5.05;1.30;;;11.20;99.90;;;;;;4982357;28;20049;-72
2023/03/23 09:48:23;;;;;;;7.47;1.63;;;11.20;99.90;;;;;;4994027;28;20060;-72
2023/03/23 09:50:55;;;;;;;3.80;0.88;;;11.20;99.90;;;;;;5051584;28;20493;-72
2023/03/23 09:53:43;;;;;;;3.30;1.30;;;11.30;99.90;;;;;;5074937;28;20048;-72
2023/03/23 09:56:13;;;;;;;5.22;1.50;;;11.40;99.90;;;;;;5074643;28;20041;-72
2023/03/23 09:58:56;;;;;;;4.43;1.42;;;11.50;99.90;;;;;;5056516;28;20036;-72
2023/03/23 10:01:40;;;;;;;6.80;1.23;;;11.50;99.90;;;;;;5062787;28;20660;-73
2023/03/23 10:04:32;;;;;;;9.82;1.52;;;11.50;99.90;;;;;;5096208;28;20557;-72
2023/03/23 10:07:06;;;;;;;6.50;1.52;;;11.50;99.90;;;;;;5081789;28;20060;-72
2023/03/23 10:09:31;;;;;;;4.82;1.02;;;11.50;99.90;;;;;;5062540;28;20038;-72
2023/03/23 10:12:19;;;;;;;5.20;1.15;;;11.50;99.90;;;;;;5089371;28;20028;-72
2023/03/23 10:15:12;;;;;;;7.07;1.00;;;11.40;99.90;;;;;;5077525;28;20045;-72
2023/03/23 10:17:52;;;;;;;3.13;0.70;;;11.40;99.90;;;;;;5079620;28;20474;-72
2023/03/23 10:20:24;;;;;;;4.55;1.20;;;11.40;99.90;;;;;;5108711;27;20036;-72
2023/03/23 10:23:09;;;;;;;4.88;1.30;;;11.50;99.90;;;;;;5081036;28;20062;-72
2023/03/23 10:25:40;;;;;;;11.02;1.75;;;11.60;99.90;;;;;;5074229;28;20051;-72
2023/03/23 10:28:21;;;;;;;4.55;0.93;;;11.70;99.90;;;;;;5086572;28;20123;-72
2023/03/23 10:30:56;;;;;;;5.25;1.08;;;11.80;99.90;;;;;;5079168;28;20040;-73
2023/03/23 10:33:47;;;;;;;10.02;1.15;;;12.00;99.90;;;;;;5074381;28;20334;-72
2023/03/23 10:36:33;;;;;;;4.07;1.05;;;12.00;99.90;;;;;;5076468;28;20244;-72
2023/03/23 10:39:07;;;;;;;6.43;1.50;;;12.00;99.90;;;;;;5061355;28;20036;-72
2023/03/23 10:41:33;;;;;;;9.45;2.85;;;12.00;99.90;;;;;;5076644;28;20037;-72
2023/03/23 10:44:01;;;;;;;4.70;1.10;;;12.20;99.90;;;;;;5076349;28;20036;-72
2023/03/23 10:46:29;;;;;;;3.83;0.88;;;12.20;99.90;;;;;;5085221;28;20466;-72
2023/03/23 10:48:58;;;;;;;5.22;1.25;;;12.30;99.90;;;;;;5082919;28;20044;-72
2023/03/23 10:51:31;;;;;;;3.35;1.10;;;12.30;99.90;;;;;;5072038;28;20039;-72
2023/03/23 10:54:00;;;;;;;5.43;1.10;;;12.20;99.90;;;;;;5055243;28;20474;-72
2023/03/23 10:56:41;;;;;;;3.55;0.95;;;12.30;99.90;;;;;;5111263;27;20073;-73
2023/03/23 10:59:41;;;;;;;4.85;1.42;;;12.20;99.90;;;;;;5082593;28;20072;-72
2023/03/23 11:02:17;;;;;;;6.53;1.08;;;12.30;99.90;;;;;;5071196;28;20051;-75
2023/03/23 11:04:46;;;;;;;;;;;12.30;99.90;;;;;;5090492;27;20144;-72
2023/03/23 11:07:20;;;;;;;10.65;0.95;;;12.30;99.90;;;;;;5117458;27;19926;-72
2023/03/23 11:09:55;;;;;;;4.72;1.20;;;12.40;99.90;;;;;;5078649;28;20046;-72
2023/03/23 11:12:22;;;;;;;4.35;1.15;;;12.60;99.90;;;;;;5076942;28;20625;-72
2023/03/23 11:14:49;;;;;;;4.28;1.23;;;12.70;99.90;;;;;;5063003;28;20040;-72
2023/03/23 11:17:27;;;;;;;2.45;0.80;;;12.70;99.90;;;;;;5078129;28;20481;-72
2023/03/23 11:19:56;;;;;;;4.40;1.00;;;12.80;99.90;;;;;;5081272;28;20444;-72
2023/03/23 11:22:31;;;;;;;5.55;0.75;;;12.70;99.90;;;;;;5074500;28;20186;-72
2023/03/23 11:25:01;;;;;;;6.25;1.40;;;12.80;99.90;;;;;;5073796;28;20037;-72
2023/03/23 11:27:28;;;;;;;2.75;0.90;;;12.80;99.90;;;;;;5079049;28;20040;-72
2023/03/23 11:29:56;;;;;;;3.75;1.10;;;13.00;99.90;;;;;;5080836;28;20040;-72
2023/03/23 11:32:28;;;;;;;3.28;1.25;;;13.00;99.90;;;;;;5073314;28;20048;-72
2023/03/23 11:34:59;;;;;;;3.55;1.40;;;13.20;99.90;;;;;;5078937;28;20135;-72
2023/03/23 11:37:35;;;;;;;2.70;0.88;;;13.40;99.90;;;;;;5074588;28;20548;-72
2023/03/23 11:40:11;;;;;;;;;;;13.40;99.90;;;;;;5074599;28;20044;-72
2023/03/23 11:43:06;;;;;;;4.13;1.27;;;13.50;99.90;;;;;;5075538;28;19966;-72
2023/03/23 11:45:33;;;;;;;3.97;1.27;;;13.50;99.90;;;;;;5074791;28;20053;-73
2023/03/23 11:48:26;;;;;;;2.92;1.05;;;13.60;99.90;;;;;;5060647;28;20040;-73
2023/03/23 11:51:17;;;;;;;1.77;0.80;;;13.50;99.90;;;;;;5077349;28;20032;-72
2023/03/23 11:53:57;;;;;;;4.90;0.90;;;13.50;99.90;;;;;;5094248;28;20048;-72
2023/03/23 11:56:39;;;;;;;3.05;1.13;;;13.40;99.90;;;;;;5074200;28;20037;-73
2023/03/23 11:59:14;;;;;;;3.05;1.00;;;13.30;99.90;;;;;;5075958;28;20511;-72
2023/03/23 12:01:52;;;;;;;2.05;0.60;;;13.30;99.90;;;;;;5073230;28;20032;-73
2023/03/23 12:04:44;;;;;;;3.85;1.38;;;13.40;99.90;;;;;;5060257;28;20047;-73
2023/03/23 12:07:32;;;;;;;6.10;0.80;;;13.40;99.90;;;;;;5078810;28;20122;-72
2023/03/23 12:10:27;;;;;;;3.95;0.57;;;13.50;99.90;;;;;;5061215;28;20093;-73
2023/03/23 12:13:14;;;;;;;1.83;1.10;;;13.40;99.90;;;;;;5095573;27;20059;-73
2023/03/23 12:16:08;;;;;;;3.60;0.80;;;13.30;99.90;;;;;;5074968;28;20036;-72
2023/03/23 12:18:57;;;;;;;3.38;0.90;;;13.30;99.90;;;;;;5081833;28;20032;-72
2023/03/23 12:21:58;;;;;;;5.93;0.85;;;13.30;99.90;;;;;;5105378;27;20118;-72
2023/03/23 12:24:35;;;;;;;4.03;0.85;;;13.30;99.90;;;;;;5082664;28;20059;-72
2023/03/23 12:27:08;;;;;;;5.03;1.15;;;13.50;99.90;;;;;;5074050;28;20897;-72
2023/03/23 12:29:40;;;;;;;3.42;0.85;;;13.60;99.90;;;;;;5076053;28;20127;-72
2023/03/23 12:32:30;;;;;;;2.78;0.90;;;13.60;99.90;;;;;;5076738;28;20802;-72
2023/03/23 12:35:25;;;;;;;6.82;1.05;;;13.80;99.90;;;;;;5058218;28;20040;-72
2023/03/23 12:38:01;;;;;;;5.55;0.60;;;13.80;99.90;;;;;;5076118;28;20097;-72
2023/03/23 12:40:56;;;;;;;4.03;0.60;;;13.80;99.90;;;;;;5072657;28;20043;-72
2023/03/23 12:43:33;;;;;;;6.95;1.60;;;13.80;99.90;;;;;;5073002;28;20036;-72
2023/03/23 12:46:16;;;;;;;1.23;0.50;;;13.70;99.90;;;;;;5055447;28;20036;-72
2023/03/23 12:48:48;;;;;;;5.00;0.77;;;13.60;99.90;;;;;;5076993;28;20044;-73
2023/03/23 12:51:29;;;;;;;7.43;1.13;;;13.50;99.90;;;;;;5068272;28;20071;-72
2023/03/23 12:54:29;;;;;;;3.17;0.93;;;13.50;99.90;;;;;;5060146;28;20481;-72
2023/03/23 12:57:30;;;;;;;4.45;0.90;;;13.40;99.90;;;;;;5087562;27;20412;-72
2023/03/23 13:00:11;;;;;;;5.03;1.10;;;13.40;99.90;;;;;;5062422;28;20048;-75
2023/03/23 13:02:51;;;;;;;3.50;0.98;;;13.50;99.90;;;;;;5072000;28;20557;-72
2023/03/23 13:05:26;;;;;;;3.38;0.60;;;13.50;99.90;;;;;;5085474;28;20496;-72
2023/03/23 13:08:13;;;;;;;1.88;0.60;;;13.50;99.90;;;;;;5071255;28;20055;-72